Atlanta, IL (61723)

10:59 AM CST on February 19, 2017 (GMT -0600)
Out on the Farm | | Change Station
Active Advisory: Dense Fog Advisory

Elev 670 ft 40.31 °N, 89.25 °W | Updated 10 minutes ago

Fog
Fog
48.9 °F
Feels Like 47 °F
N
5.0
Wind Variable Wind from South
Gusts 9.0 mph

Today
High -- | Low -- °F
--% Chance of Precip.
Yesterday
High -- | Low -- °F
Precip. -- in
Pressure 30.08 in
Visibility 0.5 miles
Clouds Overcast 100 ft
Windchill 47 °F
Dew Point 48 °F
Humidity 97%
Rainfall 0.00 in
Snow Depth Not available.
6:44 AM 5:37 PM
Last Quarter, 42% visible
METAR KAAA 191635Z AUTO 16004KT 1/2SM FG OVC001 09/09 A3008 RMK AO2 T00940094
Pressure 30.08 in
Visibility 0.5 miles
Clouds Overcast 100 ft
Windchill 47 °F
Dew Point 48 °F
Humidity 97%
Rainfall 0.00 in
Snow Depth Not available.
6:44 AM 5:37 PM
Last Quarter, 42% visible
METAR KAAA 191635Z AUTO 16004KT 1/2SM FG OVC001 09/09 A3008 RMK AO2 T00940094

Get Your Daily Forecast Email!

Thanks for signing up!

Be on the lookout for a verification email in your inbox.

You'll start receiving the daily forecast at 8 AM.

×

10-Day Weather Forecast

Almanac

Astronomy

Feb. 19, 2017 Rise Set
Actual Time
Civil Twilight
Nautical Twilight
Astronomical Twilight
Moon
Length of Visible Light
Length of Day
Tomorrow will be .
, % of the Moon is Illuminated

Today's Extremes

State Highs State Lows

Community

WunderPhotos

Upload Photos

1,962,540 photos uploaded!

WunderBlog® & News

Nearby

Air Quality

  Air Quality AQ Index Pollutant
Not available.

Snow Depth

Station Depth Elevation

Earthquake Activity

City Distance Mag. Time & Date
Minimum magnitude displayed is 2.5.

Coastal Water Temperatures

Place Temperature

Stations

Nearby Weather Stations

Station Location Temp. Windchill Dew Point Humidity Wind Precip. Elev Updated Type
                   

Watches & Warnings

Dense Fog Advisory
Issued: 8:34 AM CST Feb. 19, 2017 – National Weather Service

... Dense fog advisory now in effect until 11 am CST this
morning...

* visibility... one quarter mile or less at times.

* Impacts... areas of low visibility and rapid changes in
visibility will cause hazardous driving conditions.

Precautionary/preparedness actions...

A dense fog advisory means visibilities will frequently be
reduced to less than one quarter mile. If driving... slow down...
use your headlights... and leave plenty of distance ahead of you.